Time;durP1;ratioP1;P1;durP2;ratioP2;P2;SDS_P1;SDS_P2;PMS_P1;PMS_P2;Temp;Humidity;BMP_temperature;BMP_pressure;BME280_temperature;BME280_humidity;BME280_pressure;Samples;Min_cycle;Max_cycle;Signal;HPM_P1;HPM_P2
2023/03/01 00:02:06;;;;;;;10.82;6.15;;;-2.90;99.90;;;;;;7338187;32;20174;-55
2023/03/01 00:06:08;;;;;;;9.20;6.12;;;-3.00;99.90;;;;;;7335859;32;20221;-54
2023/03/01 00:10:10;;;;;;;8.60;5.60;;;-2.90;99.90;;;;;;7330256;32;20413;-55
2023/03/01 00:14:13;;;;;;;10.77;6.35;;;-3.00;99.90;;;;;;7332581;32;20179;-55
2023/03/01 00:18:15;;;;;;;8.80;5.93;;;-2.90;99.90;;;;;;7326687;32;20605;-55
2023/03/01 00:22:16;;;;;;;9.02;5.65;;;-3.00;99.90;;;;;;7331931;32;20124;-55
2023/03/01 00:26:20;;;;;;;9.27;6.18;;;-3.00;99.90;;;;;;7325173;32;20131;-55
2023/03/01 00:30:22;;;;;;;8.52;6.25;;;-3.10;99.90;;;;;;7330889;32;20131;-54
2023/03/01 00:34:23;;;;;;;9.90;5.82;;;-3.10;99.90;;;;;;7331329;32;20616;-55
2023/03/01 00:38:26;;;;;;;8.18;6.30;;;-3.10;99.90;;;;;;7338981;32;20132;-55
2023/03/01 00:42:27;;;;;;;11.40;6.65;;;-3.20;99.90;;;;;;7337864;32;20538;-56
2023/03/01 00:46:30;;;;;;;10.90;6.65;;;-3.10;99.90;;;;;;7327456;32;20194;-55
2023/03/01 00:50:32;;;;;;;10.70;6.82;;;-3.10;99.90;;;;;;7334707;32;20104;-55
2023/03/01 00:54:34;;;;;;;9.40;6.20;;;-3.10;99.90;;;;;;7341844;32;20125;-55
2023/03/01 00:58:36;;;;;;;9.07;6.45;;;-3.20;99.90;;;;;;7332800;32;20487;-55
2023/03/01 01:02:38;;;;;;;11.05;6.85;;;-3.20;99.90;;;;;;7334878;32;20290;-54
2023/03/01 01:06:43;;;;;;;9.88;6.82;;;-3.20;99.90;;;;;;7333788;32;20195;-54
2023/03/01 01:10:46;;;;;;;11.98;6.70;;;-3.10;99.90;;;;;;7333412;32;20139;-54
2023/03/01 01:14:47;;;;;;;8.18;6.50;;;-3.10;99.90;;;;;;7334383;32;20133;-54
2023/03/01 01:18:50;;;;;;;13.68;7.55;;;-3.10;99.90;;;;;;7327625;32;20122;-54
2023/03/01 01:22:52;;;;;;;10.27;6.93;;;-3.00;99.90;;;;;;7339045;32;20125;-54
2023/03/01 01:26:54;;;;;;;15.23;6.90;;;-3.00;99.90;;;;;;7331300;32;20470;-54
2023/03/01 01:30:55;;;;;;;12.45;7.62;;;-3.00;99.90;;;;;;7338491;32;20557;-55
2023/03/01 01:34:57;;;;;;;12.68;6.82;;;-3.10;99.90;;;;;;7325812;32;20195;-53
2023/03/01 01:38:59;;;;;;;11.77;7.53;;;-3.00;99.90;;;;;;7331506;32;20293;-54
2023/03/01 01:43:01;;;;;;;11.85;7.12;;;-3.00;99.90;;;;;;7333551;32;20132;-54
2023/03/01 01:47:17;;;;;;;8.90;6.75;;;-2.90;99.90;;;;;;7326244;32;20446;-54
2023/03/01 01:51:24;;;;;;;12.05;8.18;;;-3.00;99.90;;;;;;7337476;32;20216;-54
2023/03/01 01:55:27;;;;;;;12.68;7.12;;;-3.00;99.90;;;;;;7337218;32;20166;-54
2023/03/01 01:59:32;;;;;;;11.38;6.90;;;-3.10;99.90;;;;;;7333379;32;20586;-55
2023/03/01 02:03:41;;;;;;;14.00;7.87;;;-3.10;99.90;;;;;;7330826;32;20149;-54
2023/03/01 02:07:45;;;;;;;12.73;8.10;;;-3.20;99.90;;;;;;7329743;32;20127;-55
2023/03/01 02:11:47;;;;;;;16.25;7.78;;;-3.10;99.90;;;;;;7328384;32;20123;-54
2023/03/01 02:15:49;;;;;;;11.02;7.65;;;-3.10;99.90;;;;;;7336045;32;20251;-54
2023/03/01 02:20:18;;;;;;;12.50;8.35;;;-3.20;99.90;;;;;;7327476;32;20127;-55
2023/03/01 02:24:31;;;;;;;12.82;8.57;;;-3.10;99.90;;;;;;7323993;32;20333;-54
2023/03/01 02:28:39;;;;;;;19.05;9.55;;;-3.00;99.90;;;;;;7334886;32;20718;-55
2023/03/01 02:32:41;;;;;;;15.52;9.90;;;-2.70;99.90;;;;;;7333988;32;20134;-54
2023/03/01 02:36:53;;;;;;;19.05;9.63;;;-2.40;99.90;;;;;;7332835;32;20107;-54
2023/03/01 02:40:57;;;;;;;15.77;9.07;;;-2.20;99.90;;;;;;7338205;32;20099;-55
2023/03/01 02:44:59;;;;;;;17.60;10.07;;;-2.20;99.90;;;;;;7335594;32;20274;-56
2023/03/01 02:49:00;;;;;;;13.13;9.45;;;-2.20;99.90;;;;;;7340891;32;20190;-54
2023/03/01 02:53:15;;;;;;;13.52;9.82;;;-2.20;99.90;;;;;;7336292;32;20133;-55
2023/03/01 02:57:18;;;;;;;12.73;8.75;;;-2.20;99.90;;;;;;7330611;32;20349;-53
2023/03/01 03:01:20;;;;;;;19.00;9.18;;;-2.30;99.90;;;;;;7342221;32;20153;-54
2023/03/01 03:05:28;;;;;;;13.82;9.15;;;-2.30;99.90;;;;;;7328542;32;20183;-54
2023/03/01 03:09:29;;;;;;;17.48;10.10;;;-2.20;99.90;;;;;;7330781;32;20150;-54
2023/03/01 03:13:32;;;;;;;16.08;9.45;;;-2.10;99.90;;;;;;7335525;32;20128;-54
2023/03/01 03:17:35;;;;;;;12.75;9.20;;;-2.10;99.90;;;;;;7336277;32;20182;-56
2023/03/01 03:21:37;;;;;;;16.62;9.43;;;-2.20;99.90;;;;;;7336333;32;20141;-55
2023/03/01 03:25:38;;;;;;;14.25;9.30;;;-2.20;99.90;;;;;;7330197;32;20107;-54
2023/03/01 03:29:40;;;;;;;14.45;8.95;;;-2.30;99.90;;;;;;7337176;32;20275;-53
2023/03/01 03:33:42;;;;;;;15.00;9.38;;;-2.40;99.90;;;;;;7340611;32;20103;-56
2023/03/01 03:38:02;;;;;;;15.20;9.10;;;-2.40;99.90;;;;;;7336017;32;20107;-54
2023/03/01 03:42:04;;;;;;;17.75;9.77;;;-2.40;99.90;;;;;;7339574;32;20182;-55
2023/03/01 03:46:06;;;;;;;14.50;9.13;;;-2.40;99.90;;;;;;7335692;32;20195;-55
2023/03/01 03:50:11;;;;;;;17.73;9.48;;;-2.40;99.90;;;;;;7337186;32;20442;-55
2023/03/01 03:54:12;;;;;;;14.57;9.45;;;-2.60;99.90;;;;;;7333369;32;20133;-55
2023/03/01 03:58:16;;;;;;;17.52;10.23;;;-2.50;99.90;;;;;;7336585;32;20624;-55
2023/03/01 04:02:21;;;;;;;16.25;9.90;;;-2.50;99.90;;;;;;7344510;32;20465;-55
2023/03/01 04:06:23;;;;;;;14.00;9.10;;;-2.50;99.90;;;;;;7339291;32;20511;-54
2023/03/01 04:10:25;;;;;;;15.70;9.75;;;-2.40;99.90;;;;;;7331961;32;20223;-55
2023/03/01 04:14:27;;;;;;;14.35;9.15;;;-2.40;99.90;;;;;;7331038;32;20533;-54
2023/03/01 04:18:28;;;;;;;15.32;10.00;;;-2.40;99.90;;;;;;7336456;32;20258;-54
2023/03/01 04:22:31;;;;;;;13.50;9.30;;;-2.40;99.90;;;;;;7336645;32;20618;-54
2023/03/01 04:26:33;;;;;;;15.20;9.70;;;-2.50;99.90;;;;;;7334790;32;20134;-54
2023/03/01 04:30:36;;;;;;;20.33;9.48;;;-2.50;99.90;;;;;;7343969;32;20862;-56
2023/03/01 04:34:38;;;;;;;15.15;9.52;;;-2.50;99.90;;;;;;7342976;32;20091;-55
2023/03/01 04:38:40;;;;;;;15.70;10.15;;;-2.50;99.90;;;;;;7330108;32;20514;-54
2023/03/01 04:42:42;;;;;;;15.85;10.40;;;-2.50;99.90;;;;;;7331903;32;20133;-54
2023/03/01 04:46:44;;;;;;;18.25;10.93;;;-2.50;99.90;;;;;;7342649;32;20164;-54
2023/03/01 04:50:46;;;;;;;15.23;9.60;;;-2.50;99.90;;;;;;7339786;32;20112;-55
2023/03/01 04:54:48;;;;;;;15.88;9.48;;;-2.50;99.90;;;;;;7331445;32;20107;-54
2023/03/01 04:58:50;;;;;;;15.02;10.23;;;-2.60;99.90;;;;;;7344747;32;20303;-55
2023/03/01 05:02:54;;;;;;;17.67;9.63;;;-2.60;99.90;;;;;;7332656;32;20500;-54
2023/03/01 05:06:58;;;;;;;14.93;9.65;;;-2.60;99.90;;;;;;7326583;32;20139;-55
2023/03/01 05:11:00;;;;;;;14.73;9.88;;;-2.60;99.90;;;;;;7330865;32;20211;-54
2023/03/01 05:15:06;;;;;;;15.95;10.23;;;-2.60;99.90;;;;;;7328083;32;20947;-55
2023/03/01 05:19:15;;;;;;;15.73;10.52;;;-2.60;99.90;;;;;;7328772;32;20166;-54
2023/03/01 05:23:16;;;;;;;19.33;11.02;;;-2.70;99.90;;;;;;7341912;32;20725;-55
2023/03/01 05:27:21;;;;;;;18.02;10.68;;;-2.70;99.90;;;;;;7332553;32;20530;-54
2023/03/01 05:31:23;;;;;;;16.73;11.15;;;-2.60;99.90;;;;;;7339610;32;20111;-55
2023/03/01 05:35:25;;;;;;;16.52;11.05;;;-2.60;99.90;;;;;;7334637;32;20108;-54
2023/03/01 05:39:29;;;;;;;20.20;11.63;;;-2.60;99.90;;;;;;7331119;32;20741;-54
2023/03/01 05:43:33;;;;;;;16.42;10.88;;;-2.50;99.90;;;;;;7337617;32;20127;-54
2023/03/01 05:47:35;;;;;;;17.73;11.32;;;-2.50;99.90;;;;;;7335545;32;20121;-54
2023/03/01 05:51:37;;;;;;;19.00;11.12;;;-2.60;99.90;;;;;;7321751;32;20194;-55
2023/03/01 05:55:39;;;;;;;18.85;10.82;;;-2.50;99.90;;;;;;7336468;32;22555;-54
2023/03/01 05:59:41;;;;;;;17.67;10.90;;;-2.50;99.90;;;;;;7331344;32;20194;-54
2023/03/01 06:03:42;;;;;;;16.37;11.10;;;-2.50;99.90;;;;;;7328633;32;20199;-55
2023/03/01 06:07:44;;;;;;;14.95;10.25;;;-2.50;99.90;;;;;;7329985;32;20127;-55
2023/03/01 06:11:46;;;;;;;17.08;10.63;;;-2.50;99.90;;;;;;7329823;32;20203;-55
2023/03/01 06:15:48;;;;;;;16.10;10.30;;;-2.40;99.90;;;;;;7326688;32;20200;-54
2023/03/01 06:19:49;;;;;;;18.05;11.12;;;-2.40;99.90;;;;;;7340994;32;20216;-55
2023/03/01 06:23:51;;;;;;;27.13;16.00;;;-2.50;99.90;;;;;;7334165;32;20141;-55
2023/03/01 06:27:54;;;;;;;20.73;11.52;;;-2.50;99.90;;;;;;7342297;32;20259;-56
2023/03/01 06:31:55;;;;;;;18.80;10.20;;;-2.40;99.90;;;;;;7329783;32;20108;-55
2023/03/01 06:35:57;;;;;;;15.23;10.43;;;-2.40;99.90;;;;;;7338551;32;20107;-55
2023/03/01 06:39:59;;;;;;;21.60;11.32;;;-2.40;99.90;;;;;;7327695;32;20157;-56
2023/03/01 06:44:01;;;;;;;18.77;10.93;;;-2.40;99.90;;;;;;7339989;32;20472;-56
2023/03/01 06:48:07;;;;;;;19.15;10.80;;;-2.40;99.90;;;;;;7339207;32;20108;-55
2023/03/01 06:52:09;;;;;;;17.42;10.10;;;-2.30;99.90;;;;;;7342681;32;20218;-55
2023/03/01 06:56:10;;;;;;;17.73;10.60;;;-2.30;99.90;;;;;;7337385;32;20201;-54
2023/03/01 07:00:13;;;;;;;17.55;11.27;;;-2.30;99.90;;;;;;7338227;32;20766;-56
2023/03/01 07:04:14;;;;;;;18.30;11.15;;;-2.30;99.90;;;;;;7341264;32;20142;-55
2023/03/01 07:08:16;;;;;;;16.90;10.80;;;-2.30;99.90;;;;;;7337246;32;20623;-56
2023/03/01 07:12:18;;;;;;;19.15;10.70;;;-2.30;99.90;;;;;;7332014;32;20578;-56
2023/03/01 07:16:20;;;;;;;14.85;10.73;;;-2.20;99.90;;;;;;7333824;32;20107;-55
2023/03/01 07:20:24;;;;;;;15.57;10.18;;;-2.20;99.90;;;;;;7338469;32;20215;-56
2023/03/01 07:24:26;;;;;;;17.40;10.65;;;-2.10;99.90;;;;;;7338105;32;20199;-56
2023/03/01 07:28:28;;;;;;;22.00;11.15;;;-2.00;99.90;;;;;;7335026;32;20111;-56
2023/03/01 07:32:30;;;;;;;18.73;10.15;;;-2.00;99.90;;;;;;7339271;32;20202;-56
2023/03/01 07:36:32;;;;;;;15.85;10.48;;;-1.80;99.90;;;;;;7335078;32;20176;-56
2023/03/01 07:40:34;;;;;;;20.08;10.90;;;-1.70;99.90;;;;;;7342006;32;20149;-56
2023/03/01 07:44:36;;;;;;;17.12;10.43;;;-1.70;99.90;;;;;;7332866;32;20464;-56
2023/03/01 07:48:38;;;;;;;17.98;10.27;;;-1.60;99.90;;;;;;7332397;32;20321;-56
2023/03/01 07:52:39;;;;;;;17.52;10.32;;;-1.60;99.90;;;;;;7336573;32;20222;-55
2023/03/01 07:56:41;;;;;;;14.77;10.10;;;-1.50;99.90;;;;;;7338813;32;20316;-55
2023/03/01 08:00:43;;;;;;;17.52;9.73;;;-1.30;99.90;;;;;;7337581;32;20222;-56
2023/03/01 08:04:44;;;;;;;18.50;10.45;;;-1.20;99.90;;;;;;7333065;32;20194;-57
2023/03/01 08:08:47;;;;;;;16.05;10.18;;;-1.10;99.90;;;;;;7337234;32;20667;-56
2023/03/01 08:12:51;;;;;;;15.27;9.43;;;-0.80;99.90;;;;;;7334792;32;20252;-56
2023/03/01 08:16:53;;;;;;;15.20;9.35;;;-0.70;99.90;;;;;;7333707;32;20655;-56
2023/03/01 08:20:55;;;;;;;18.45;9.63;;;-0.60;99.90;;;;;;7332104;32;20493;-56
2023/03/01 08:24:56;;;;;;;14.65;9.88;;;-0.50;99.90;;;;;;7330269;32;20125;-56
2023/03/01 08:28:59;;;;;;;13.85;9.38;;;-0.40;99.90;;;;;;7337507;32;20134;-56
2023/03/01 08:33:01;;;;;;;13.93;9.70;;;-0.20;99.90;;;;;;7332582;32;20171;-56
2023/03/01 08:37:03;;;;;;;13.85;8.80;;;0.10;99.90;;;;;;7330062;32;20551;-56
2023/03/01 08:41:05;;;;;;;13.65;8.88;;;0.40;99.90;;;;;;7328655;32;20216;-57
2023/03/01 08:45:07;;;;;;;13.30;8.65;;;0.70;99.90;;;;;;7327708;32;20194;-57
2023/03/01 08:49:14;;;;;;;15.63;8.75;;;0.80;99.90;;;;;;7340601;32;20146;-56
2023/03/01 08:53:16;;;;;;;11.93;7.90;;;0.90;99.90;;;;;;7330695;32;20282;-59
2023/03/01 08:57:18;;;;;;;12.25;8.02;;;1.00;99.90;;;;;;7335640;32;20741;-55
2023/03/01 09:01:20;;;;;;;13.93;8.20;;;1.00;99.90;;;;;;7329598;32;20729;-56
2023/03/01 09:05:22;;;;;;;13.07;7.68;;;1.10;99.90;;;;;;7332978;32;20250;-56
2023/03/01 09:09:23;;;;;;;13.15;8.15;;;1.30;99.90;;;;;;7342179;32;20172;-57
2023/03/01 09:13:30;;;;;;;17.12;8.98;;;1.30;99.90;;;;;;7334699;32;20202;-56
2023/03/01 09:17:32;;;;;;;;;;;1.60;99.90;;;;;;7338123;32;20244;-58
2023/03/01 09:21:34;;;;;;;11.20;7.45;;;2.10;99.90;;;;;;7335886;32;20010;-57
2023/03/01 09:25:41;;;;;;;11.43;7.32;;;2.80;99.90;;;;;;7340209;32;20150;-57
2023/03/01 09:29:43;;;;;;;12.37;7.80;;;3.30;99.90;;;;;;7334725;32;20210;-56
2023/03/01 09:33:49;;;;;;;11.68;7.97;;;3.70;99.90;;;;;;7334373;32;20392;-56
2023/03/01 09:37:51;;;;;;;10.10;6.82;;;4.60;99.90;;;;;;7329222;32;20104;-56
2023/03/01 09:42:04;;;;;;;14.20;8.30;;;5.00;99.90;;;;;;7337494;32;20648;-57
2023/03/01 09:46:09;;;;;;;15.18;7.75;;;4.50;99.90;;;;;;7329869;32;20539;-56
2023/03/01 09:50:18;;;;;;;12.37;7.55;;;4.80;99.90;;;;;;7332033;32;20262;-56
2023/03/01 09:54:20;;;;;;;11.60;7.68;;;5.10;99.90;;;;;;7336227;32;20178;-56
2023/03/01 09:58:27;;;;;;;13.23;8.00;;;5.30;99.90;;;;;;7338297;32;20135;-58
2023/03/01 10:02:41;;;;;;;12.07;7.62;;;5.90;99.90;;;;;;7343178;32;20123;-56
2023/03/01 10:07:01;;;;;;;12.40;8.45;;;6.60;99.90;;;;;;7345585;32;20119;-57
2023/03/01 10:11:04;;;;;;;11.48;7.80;;;6.70;99.90;;;;;;7340721;32;20547;-57
2023/03/01 10:15:11;;;;;;;11.82;8.20;;;6.50;99.90;;;;;;7339095;32;20100;-57
2023/03/01 10:19:36;;;;;;;;;;;7.80;99.90;;;;;;7340496;32;20157;-56
2023/03/01 10:23:38;;;;;;;12.50;6.90;;;8.00;97.70;;;;;;7332927;32;20069;-56
2023/03/01 10:27:51;;;;;;;12.57;7.25;;;9.40;94.10;;;;;;7344479;32;20211;-57
2023/03/01 10:31:54;;;;;;;11.15;7.65;;;9.50;90.40;;;;;;7345108;32;20543;-57
2023/03/01 10:35:56;;;;;;;12.43;7.32;;;9.30;90.30;;;;;;7345754;32;20099;-57
2023/03/01 10:40:10;;;;;;;12.20;7.57;;;7.60;91.80;;;;;;7341213;32;20116;-58
2023/03/01 10:44:58;;;;;;;10.75;6.97;;;6.80;93.20;;;;;;7336969;32;20112;-57
2023/03/01 10:49:21;;;;;;;13.23;7.32;;;6.00;96.20;;;;;;7336360;32;20157;-56
2023/03/01 10:53:31;;;;;;;9.57;6.70;;;5.30;98.40;;;;;;7334612;32;20256;-57
2023/03/01 10:57:40;;;;;;;11.93;7.68;;;4.80;99.90;;;;;;7345734;32;20115;-57
2023/03/01 11:01:43;;;;;;;12.02;7.97;;;4.70;99.90;;;;;;7333072;32;20100;-57
2023/03/01 11:05:57;;;;;;;11.63;6.93;;;4.70;99.90;;;;;;7326557;32;20226;-56
2023/03/01 11:09:58;;;;;;;9.90;6.53;;;4.60;99.90;;;;;;7336950;32;20143;-56
2023/03/01 11:14:12;;;;;;;10.70;6.32;;;4.40;99.90;;;;;;7340595;32;20687;-56
2023/03/01 11:18:30;;;;;;;16.27;6.50;;;4.40;99.90;;;;;;7340502;32;20152;-57
2023/03/01 11:22:52;;;;;;;11.05;6.87;;;4.40;99.90;;;;;;7333644;32;20112;-57
2023/03/01 11:26:55;;;;;;;10.07;6.22;;;4.50;99.90;;;;;;7339454;32;20288;-57
2023/03/01 11:31:05;;;;;;;10.98;6.32;;;4.60;99.90;;;;;;7338112;32;20119;-55
2023/03/01 11:35:13;;;;;;;9.68;6.72;;;4.80;99.90;;;;;;7338169;32;20190;-56
2023/03/01 11:39:30;;;;;;;9.23;6.05;;;4.80;99.90;;;;;;7338798;32;20118;-56
2023/03/01 11:43:54;;;;;;;10.23;6.20;;;4.90;99.90;;;;;;7331310;32;20131;-57
2023/03/01 11:48:25;;;;;;;10.02;5.72;;;4.80;99.90;;;;;;7336639;32;20232;-56
2023/03/01 11:52:58;;;;;;;9.57;6.62;;;4.90;99.90;;;;;;7312109;32;20182;-56
2023/03/01 11:57:11;;;;;;;8.07;5.37;;;5.10;99.90;;;;;;7335862;32;20095;-56
2023/03/01 12:01:29;;;;;;;12.50;6.50;;;6.00;99.90;;;;;;7330637;32;20646;-56
2023/03/01 12:05:47;;;;;;;8.43;5.85;;;6.30;99.90;;;;;;7336457;32;20111;-56
2023/03/01 12:09:59;;;;;;;9.35;5.90;;;6.70;99.90;;;;;;7337323;32;20130;-56
2023/03/01 12:14:01;;;;;;;8.30;6.22;;;6.90;99.20;;;;;;7337291;32;20155;-56
2023/03/01 12:18:30;;;;;;;10.60;6.50;;;7.00;97.00;;;;;;7341569;32;20266;-56
2023/03/01 12:22:46;;;;;;;10.30;6.40;;;8.20;94.30;;;;;;7332415;32;20198;-58
2023/03/01 12:26:54;;;;;;;8.93;5.87;;;9.10;92.60;;;;;;7336148;32;20119;-57
2023/03/01 12:31:30;;;;;;;7.50;5.68;;;10.10;87.50;;;;;;7338292;32;20110;-56
2023/03/01 12:35:58;;;;;;;7.75;6.10;;;10.90;80.00;;;;;;7341903;32;20270;-58
2023/03/01 12:40:37;;;;;;;9.80;6.28;;;10.60;79.90;;;;;;7308857;32;20182;-57
2023/03/01 12:44:49;;;;;;;8.85;6.12;;;9.70;78.80;;;;;;7332976;32;20092;-56
2023/03/01 12:48:54;;;;;;;8.77;6.07;;;9.20;81.40;;;;;;7338502;32;20103;-56
2023/03/01 12:52:57;;;;;;;7.20;5.62;;;9.40;81.40;;;;;;7335110;32;20531;-57
2023/03/01 12:57:29;;;;;;;9.02;6.18;;;9.90;79.20;;;;;;7330002;32;20253;-57
2023/03/01 13:01:34;;;;;;;8.18;6.18;;;10.80;77.40;;;;;;7323759;32;20112;-56
2023/03/01 13:05:52;;;;;;;10.35;5.97;;;10.70;73.10;;;;;;7333394;32;20143;-56
2023/03/01 13:10:06;;;;;;;10.88;5.65;;;9.60;75.00;;;;;;7329339;32;20183;-58
2023/03/01 13:14:20;;;;;;;9.95;6.07;;;9.60;77.40;;;;;;7326092;32;20202;-55
2023/03/01 13:18:23;;;;;;;9.63;5.95;;;9.80;74.80;;;;;;7333627;32;20233;-56
2023/03/01 13:22:33;;;;;;;8.02;6.05;;;10.90;72.10;;;;;;7331227;32;20139;-56
2023/03/01 13:27:07;;;;;;;8.43;5.75;;;11.00;70.40;;;;;;7340990;32;20237;-56
2023/03/01 13:31:15;;;;;;;9.55;6.25;;;10.60;70.30;;;;;;7338893;32;20244;-56
2023/03/01 13:35:19;;;;;;;12.57;6.20;;;10.40;71.70;;;;;;7335149;32;20167;-56
2023/03/01 13:39:27;;;;;;;9.45;6.62;;;11.00;72.10;;;;;;7341514;32;20143;-56
2023/03/01 13:43:42;;;;;;;9.68;5.90;;;11.00;70.60;;;;;;7337071;32;20652;-56
2023/03/01 13:47:47;;;;;;;10.18;6.25;;;10.80;68.90;;;;;;7330562;32;20134;-55
2023/03/01 13:51:49;;;;;;;11.73;6.62;;;10.00;72.20;;;;;;7326610;32;20108;-56
2023/03/01 13:55:58;;;;;;;9.57;6.37;;;10.40;72.90;;;;;;7333754;32;20596;-57
2023/03/01 14:00:00;;;;;;;8.95;6.20;;;11.20;70.60;;;;;;7335545;32;20135;-56
2023/03/01 14:04:17;;;;;;;10.00;6.20;;;11.10;69.80;;;;;;7328596;32;20228;-58
2023/03/01 14:08:22;;;;;;;8.65;6.10;;;11.10;69.20;;;;;;7331175;32;20200;-56
2023/03/01 14:12:36;;;;;;;8.40;6.60;;;11.50;70.50;;;;;;7331040;32;20130;-57
2023/03/01 14:16:58;;;;;;;10.15;6.72;;;11.30;68.30;;;;;;7332737;32;20206;-57
2023/03/01 14:21:00;;;;;;;7.93;6.43;;;11.00;70.20;;;;;;7328592;32;20269;-56
2023/03/01 14:25:19;;;;;;;13.55;6.57;;;9.70;73.60;;;;;;7327772;32;20216;-57
2023/03/01 14:29:39;;;;;;;9.80;6.50;;;9.70;74.10;;;;;;7335051;32;20188;-56
2023/03/01 14:33:41;;;;;;;9.30;5.60;;;9.80;71.80;;;;;;7334976;32;21637;-56
2023/03/01 14:37:43;;;;;;;8.80;6.15;;;9.80;73.50;;;;;;7338166;32;20818;-57
2023/03/01 14:41:45;;;;;;;8.50;6.25;;;9.80;71.90;;;;;;7339818;32;20140;-57
2023/03/01 14:45:49;;;;;;;8.07;5.85;;;9.00;72.70;;;;;;7337040;32;20229;-56
2023/03/01 14:50:15;;;;;;;9.38;6.03;;;8.30;74.90;;;;;;7337288;32;20104;-56
2023/03/01 14:54:44;;;;;;;8.02;5.85;;;7.40;78.30;;;;;;7329882;32;20206;-56
2023/03/01 14:58:50;;;;;;;8.88;5.90;;;6.90;80.90;;;;;;7336666;32;20629;-56
2023/03/01 15:02:54;;;;;;;9.32;5.53;;;6.60;83.60;;;;;;7327188;32;20503;-56
2023/03/01 15:07:04;;;;;;;10.13;5.40;;;6.50;84.00;;;;;;7333132;32;20119;-56
2023/03/01 15:11:22;;;;;;;11.15;6.62;;;6.50;87.60;;;;;;7339781;32;20126;-56
2023/03/01 15:15:34;;;;;;;13.57;6.50;;;6.50;88.80;;;;;;7344358;32;20116;-56
2023/03/01 15:19:36;;;;;;;8.25;5.78;;;6.50;89.50;;;;;;7337576;32;20280;-55
2023/03/01 15:23:39;;;;;;;8.55;6.35;;;6.40;89.70;;;;;;7333294;32;20112;-57
2023/03/01 15:27:46;;;;;;;10.20;6.53;;;6.40;90.20;;;;;;7336019;32;20107;-55
2023/03/01 15:31:58;;;;;;;10.25;6.25;;;6.40;89.40;;;;;;7338397;32;20179;-56
2023/03/01 15:36:03;;;;;;;8.55;4.90;;;6.40;90.00;;;;;;7338669;32;20099;-58
2023/03/01 15:40:48;;;;;;;14.18;5.53;;;6.30;90.50;;;;;;7333492;32;20107;-58
2023/03/01 15:45:06;;;;;;;11.82;7.00;;;6.20;88.90;;;;;;7309661;32;20103;-56
2023/03/01 15:49:40;;;;;;;7.90;5.22;;;6.20;88.50;;;;;;7334447;32;20158;-56
2023/03/01 15:53:58;;;;;;;6.78;4.25;;;6.10;87.80;;;;;;7333451;32;20104;-56
2023/03/01 15:58:11;;;;;;;6.93;4.57;;;6.00;88.00;;;;;;7340562;32;20175;-55
2023/03/01 16:02:13;;;;;;;8.20;4.68;;;5.90;87.60;;;;;;7337475;32;20130;-57
2023/03/01 16:06:15;;;;;;;7.70;4.45;;;5.80;87.60;;;;;;7339070;32;20129;-56
2023/03/01 16:10:17;;;;;;;9.25;4.28;;;5.80;89.40;;;;;;7334502;32;20439;-56
2023/03/01 16:14:19;;;;;;;9.65;5.05;;;5.70;89.30;;;;;;7338847;32;20227;-56
2023/03/01 16:18:21;;;;;;;7.12;4.78;;;5.70;90.00;;;;;;7332215;32;20178;-57
2023/03/01 16:22:24;;;;;;;7.10;4.50;;;5.60;90.50;;;;;;7340508;32;20693;-57
2023/03/01 16:26:26;;;;;;;11.35;6.18;;;5.50;91.00;;;;;;7335934;32;20136;-56
2023/03/01 16:30:28;;;;;;;10.43;5.60;;;5.40;91.50;;;;;;7338735;32;20153;-55
2023/03/01 16:34:30;;;;;;;7.22;4.65;;;5.30;91.70;;;;;;7339777;32;20380;-56
2023/03/01 16:38:32;;;;;;;8.95;4.75;;;5.30;92.10;;;;;;7340468;32;20593;-56
2023/03/01 16:42:35;;;;;;;7.85;4.70;;;5.20;92.00;;;;;;7339614;32;20166;-56
2023/03/01 16:46:37;;;;;;;8.13;4.95;;;5.10;92.80;;;;;;7335708;32;20179;-56
2023/03/01 16:50:39;;;;;;;6.43;4.50;;;5.10;92.60;;;;;;7331155;32;20186;-57
2023/03/01 16:54:40;;;;;;;7.57;4.65;;;4.90;93.40;;;;;;7331217;32;20195;-56
2023/03/01 16:58:43;;;;;;;8.43;4.68;;;4.80;93.60;;;;;;7340042;32;20851;-57
2023/03/01 17:02:45;;;;;;;9.05;4.57;;;4.70;94.30;;;;;;7327905;32;20201;-56
2023/03/01 17:06:48;;;;;;;9.60;4.68;;;4.60;94.90;;;;;;7325456;32;20357;-56
2023/03/01 17:10:50;;;;;;;7.70;4.60;;;4.50;94.90;;;;;;7330612;32;20170;-56
2023/03/01 17:14:51;;;;;;;9.40;4.03;;;4.30;95.50;;;;;;7343991;32;20140;-56
2023/03/01 17:18:53;;;;;;;9.20;4.37;;;4.40;95.80;;;;;;7329894;32;20561;-56
2023/03/01 17:22:55;;;;;;;7.57;4.50;;;4.20;96.50;;;;;;7336562;32;20480;-56
2023/03/01 17:26:56;;;;;;;7.53;4.60;;;4.20;96.80;;;;;;7333013;32;20130;-56
2023/03/01 17:31:00;;;;;;;7.72;4.93;;;4.00;97.60;;;;;;7336419;32;20118;-56
2023/03/01 17:35:02;;;;;;;7.78;4.50;;;3.90;98.00;;;;;;7339595;32;20301;-57
2023/03/01 17:39:03;;;;;;;7.90;4.22;;;3.70;99.00;;;;;;7337650;32;20130;-56
2023/03/01 17:43:05;;;;;;;8.82;4.65;;;3.70;99.40;;;;;;7332124;32;20187;-55
2023/03/01 17:47:06;;;;;;;8.15;4.37;;;3.60;99.70;;;;;;7327913;32;20275;-55
2023/03/01 17:51:10;;;;;;;10.43;4.97;;;3.60;99.90;;;;;;7334514;32;20099;-57
2023/03/01 17:55:12;;;;;;;8.05;4.57;;;3.50;99.90;;;;;;7334816;32;20619;-57
2023/03/01 17:59:16;;;;;;;8.95;4.40;;;3.40;99.90;;;;;;7332132;32;20196;-56
2023/03/01 18:03:20;;;;;;;9.45;4.62;;;3.40;99.90;;;;;;7331513;32;20181;-56
2023/03/01 18:07:21;;;;;;;6.97;4.60;;;3.30;99.90;;;;;;7335899;32;20107;-57
2023/03/01 18:11:24;;;;;;;7.95;4.80;;;3.30;99.90;;;;;;7330490;32;20152;-56
2023/03/01 18:15:26;;;;;;;7.53;4.40;;;3.30;99.90;;;;;;7336077;32;20888;-56
2023/03/01 18:19:28;;;;;;;10.38;4.87;;;3.20;99.90;;;;;;7340015;32;20457;-56
2023/03/01 18:23:31;;;;;;;8.13;4.10;;;3.30;99.90;;;;;;7336638;32;20103;-56
2023/03/01 18:27:33;;;;;;;8.80;4.53;;;3.20;99.90;;;;;;7343543;32;20111;-56
2023/03/01 18:31:35;;;;;;;8.50;4.05;;;3.10;99.90;;;;;;7336127;32;20125;-56
2023/03/01 18:35:37;;;;;;;8.93;4.57;;;2.90;99.90;;;;;;7343106;32;20107;-56
2023/03/01 18:39:40;;;;;;;9.60;4.40;;;3.00;99.90;;;;;;7336303;32;20190;-56
2023/03/01 18:43:42;;;;;;;5.75;4.22;;;2.90;99.90;;;;;;7336651;32;20112;-57
2023/03/01 18:47:44;;;;;;;8.18;4.15;;;2.90;99.90;;;;;;7336308;32;20131;-56
2023/03/01 18:51:45;;;;;;;9.27;4.45;;;2.90;99.90;;;;;;7338017;32;20180;-56
2023/03/01 18:55:47;;;;;;;7.78;4.40;;;2.80;99.90;;;;;;7338952;32;20172;-55
2023/03/01 18:59:49;;;;;;;7.90;4.18;;;2.80;99.90;;;;;;7339798;32;20288;-55
2023/03/01 19:03:51;;;;;;;11.15;4.37;;;2.90;99.90;;;;;;7342629;32;20178;-56
2023/03/01 19:07:53;;;;;;;11.77;4.45;;;2.90;99.90;;;;;;7333828;32;20190;-56
2023/03/01 19:11:57;;;;;;;8.27;4.10;;;2.90;99.90;;;;;;7337302;32;20124;-57
2023/03/01 19:16:11;;;;;;;7.82;4.65;;;3.00;99.90;;;;;;7339418;32;20181;-55
2023/03/01 19:20:13;;;;;;;9.32;4.87;;;3.00;99.90;;;;;;7335520;32;20211;-55
2023/03/01 19:24:15;;;;;;;7.65;4.55;;;3.10;99.90;;;;;;7336983;32;20483;-55
2023/03/01 19:28:16;;;;;;;9.63;4.78;;;3.10;99.90;;;;;;7334659;32;20152;-55
2023/03/01 19:32:18;;;;;;;6.80;4.40;;;3.20;99.90;;;;;;7333380;32;20100;-55
2023/03/01 19:36:20;;;;;;;11.02;4.40;;;3.20;99.90;;;;;;7339233;32;21003;-55
2023/03/01 19:40:22;;;;;;;8.13;4.55;;;3.20;99.90;;;;;;7338797;32;20111;-57
2023/03/01 19:44:24;;;;;;;7.00;4.53;;;3.10;99.90;;;;;;7340910;32;20850;-55
2023/03/01 19:48:26;;;;;;;9.30;4.90;;;3.10;99.90;;;;;;7340315;32;20300;-55
2023/03/01 19:52:28;;;;;;;7.25;4.97;;;3.00;99.90;;;;;;7336080;32;20740;-55
2023/03/01 19:56:30;;;;;;;9.35;5.03;;;3.00;99.90;;;;;;7338871;32;20140;-55
2023/03/01 20:00:33;;;;;;;9.38;4.80;;;3.10;99.90;;;;;;7336284;32;20155;-55
2023/03/01 20:04:34;;;;;;;9.65;5.28;;;3.00;99.90;;;;;;7335047;32;20175;-55
2023/03/01 20:08:36;;;;;;;12.00;5.37;;;3.00;99.90;;;;;;7341221;32;20227;-54
2023/03/01 20:12:38;;;;;;;9.85;4.93;;;2.90;99.90;;;;;;7343700;32;20103;-55
2023/03/01 20:16:40;;;;;;;8.75;4.82;;;2.90;99.90;;;;;;7335893;32;20533;-55
2023/03/01 20:20:42;;;;;;;13.15;5.15;;;2.80;99.90;;;;;;7336379;32;20126;-57
2023/03/01 20:24:43;;;;;;;10.40;5.62;;;2.90;99.90;;;;;;7340602;32;20279;-56
2023/03/01 20:28:47;;;;;;;8.95;4.80;;;2.70;99.90;;;;;;7342731;32;20103;-54
2023/03/01 20:32:49;;;;;;;10.07;5.05;;;2.70;99.90;;;;;;7342901;32;20187;-55
2023/03/01 20:36:50;;;;;;;13.13;5.75;;;2.60;99.90;;;;;;7339877;32;20099;-54
2023/03/01 20:41:04;;;;;;;10.48;5.45;;;2.60;99.90;;;;;;7331766;32;20099;-55
2023/03/01 20:45:06;;;;;;;10.27;5.22;;;2.60;99.90;;;;;;7338763;32;20117;-54
2023/03/01 20:49:09;;;;;;;8.75;5.07;;;2.50;99.90;;;;;;7346233;32;20336;-53
2023/03/01 20:53:11;;;;;;;8.02;5.03;;;2.50;99.90;;;;;;7339533;32;20118;-55
2023/03/01 20:57:13;;;;;;;10.48;5.32;;;2.50;99.90;;;;;;7338513;32;20124;-55
2023/03/01 21:01:17;;;;;;;10.60;5.87;;;2.50;99.90;;;;;;7335634;32;20165;-54
2023/03/01 21:05:19;;;;;;;8.75;5.40;;;2.30;99.90;;;;;;7338589;32;20129;-55
2023/03/01 21:09:20;;;;;;;8.02;4.87;;;2.40;99.90;;;;;;7328897;32;20322;-54
2023/03/01 21:13:23;;;;;;;10.85;5.20;;;2.30;99.90;;;;;;7334698;32;20122;-55
2023/03/01 21:17:25;;;;;;;9.48;5.47;;;2.30;99.90;;;;;;7334051;32;20191;-55